Mill City, Nevada
Current Conditions -  °F | °C
As of 6:56 AM on Saturday 22 Nov 2014 (Local Time) from KWMC Reporting Station
Overcast Overcast  
Wind Chill: 52°   Ceiling: 5500
Heat Index: 52°   Visibility: 10mi
Dew Point: 39°   Wind: 21mph
Humidity: 61%   Direction: 220°SW
Pressure: 29.84"   Gusts: 33mph
Location:  40.601°N, 117.984°W
Report Text: KWMC 221456Z AUTO 22018G29KT 10SM OVC055 11/04 A2984 RMK AO2 PK WND 22029/1453 SLP089 60000 T01110039 58010
Loading
Personal Weather Stations






























Interactive Weather Map New forecast layout! Learn more

10-Day Weather Forecast

Advertisements
Track Severe Weather on mobile